sensor_id;sensor_type;location;lat;lon;timestamp;P1;durP1;ratioP1;P2;durP2;ratioP2
62941;SDS011;49042;47.318;19.874;2023-06-19T00:02:58;8.48;;;4.97;;
62941;SDS011;49042;47.318;19.874;2023-06-19T00:05:59;8.73;;;5.00;;
62941;SDS011;49042;47.318;19.874;2023-06-19T00:09:01;9.05;;;5.50;;
62941;SDS011;49042;47.318;19.874;2023-06-19T00:12:04;7.05;;;5.18;;
62941;SDS011;49042;47.318;19.874;2023-06-19T00:15:06;9.85;;;5.10;;
62941;SDS011;49042;47.318;19.874;2023-06-19T00:18:10;8.57;;;4.62;;
62941;SDS011;49042;47.318;19.874;2023-06-19T00:21:12;6.78;;;5.03;;
62941;SDS011;49042;47.318;19.874;2023-06-19T00:24:14;7.97;;;5.47;;
62941;SDS011;49042;47.318;19.874;2023-06-19T00:27:16;6.00;;;5.40;;
62941;SDS011;49042;47.318;19.874;2023-06-19T00:30:17;8.55;;;5.45;;
62941;SDS011;49042;47.318;19.874;2023-06-19T00:33:19;7.65;;;5.70;;
62941;SDS011;49042;47.318;19.874;2023-06-19T00:36:21;10.57;;;5.75;;
62941;SDS011;49042;47.318;19.874;2023-06-19T00:39:25;7.28;;;5.47;;
62941;SDS011;49042;47.318;19.874;2023-06-19T00:42:26;6.93;;;5.90;;
62941;SDS011;49042;47.318;19.874;2023-06-19T00:45:28;7.32;;;6.20;;
62941;SDS011;49042;47.318;19.874;2023-06-19T00:48:31;8.90;;;6.07;;
62941;SDS011;49042;47.318;19.874;2023-06-19T00:51:34;9.50;;;5.90;;
62941;SDS011;49042;47.318;19.874;2023-06-19T00:54:36;6.53;;;5.28;;
62941;SDS011;49042;47.318;19.874;2023-06-19T00:57:38;17.45;;;6.07;;
62941;SDS011;49042;47.318;19.874;2023-06-19T01:00:40;7.70;;;5.62;;
62941;SDS011;49042;47.318;19.874;2023-06-19T01:03:53;9.32;;;5.87;;
62941;SDS011;49042;47.318;19.874;2023-06-19T01:06:57;6.85;;;5.28;;
62941;SDS011;49042;47.318;19.874;2023-06-19T01:10:15;7.95;;;5.87;;
62941;SDS011;49042;47.318;19.874;2023-06-19T01:16:40;10.27;;;6.97;;
62941;SDS011;49042;47.318;19.874;2023-06-19T01:19:44;18.20;;;7.53;;
62941;SDS011;49042;47.318;19.874;2023-06-19T01:22:45;13.35;;;7.57;;
62941;SDS011;49042;47.318;19.874;2023-06-19T01:25:47;11.00;;;7.65;;
62941;SDS011;49042;47.318;19.874;2023-06-19T01:28:49;23.55;;;8.80;;
62941;SDS011;49042;47.318;19.874;2023-06-19T01:32:02;20.77;;;10.20;;
62941;SDS011;49042;47.318;19.874;2023-06-19T01:35:09;23.55;;;9.73;;
62941;SDS011;49042;47.318;19.874;2023-06-19T01:38:14;26.58;;;10.45;;
62941;SDS011;49042;47.318;19.874;2023-06-19T01:41:16;18.52;;;9.45;;
62941;SDS011;49042;47.318;19.874;2023-06-19T01:44:19;21.52;;;9.35;;
62941;SDS011;49042;47.318;19.874;2023-06-19T01:47:21;19.55;;;8.60;;
62941;SDS011;49042;47.318;19.874;2023-06-19T01:50:23;18.65;;;9.32;;
62941;SDS011;49042;47.318;19.874;2023-06-19T01:53:26;19.37;;;8.85;;
62941;SDS011;49042;47.318;19.874;2023-06-19T01:56:28;18.85;;;8.07;;
62941;SDS011;49042;47.318;19.874;2023-06-19T01:59:30;16.25;;;7.75;;
62941;SDS011;49042;47.318;19.874;2023-06-19T02:02:31;12.30;;;7.85;;
62941;SDS011;49042;47.318;19.874;2023-06-19T02:05:33;12.15;;;7.35;;
62941;SDS011;49042;47.318;19.874;2023-06-19T02:08:40;14.45;;;8.05;;
62941;SDS011;49042;47.318;19.874;2023-06-19T02:11:42;20.25;;;7.93;;
62941;SDS011;49042;47.318;19.874;2023-06-19T02:14:44;14.95;;;8.20;;
62941;SDS011;49042;47.318;19.874;2023-06-19T02:17:45;15.82;;;8.60;;
62941;SDS011;49042;47.318;19.874;2023-06-19T02:20:47;16.12;;;8.48;;
62941;SDS011;49042;47.318;19.874;2023-06-19T02:23:49;16.85;;;8.52;;
62941;SDS011;49042;47.318;19.874;2023-06-19T02:26:51;14.75;;;8.73;;
62941;SDS011;49042;47.318;19.874;2023-06-19T02:29:53;12.70;;;7.70;;
62941;SDS011;49042;47.318;19.874;2023-06-19T02:32:54;14.65;;;7.47;;
62941;SDS011;49042;47.318;19.874;2023-06-19T02:35:56;11.38;;;7.30;;
62941;SDS011;49042;47.318;19.874;2023-06-19T02:39:01;15.88;;;8.05;;
62941;SDS011;49042;47.318;19.874;2023-06-19T02:42:03;15.52;;;8.02;;
62941;SDS011;49042;47.318;19.874;2023-06-19T02:45:06;10.52;;;7.97;;
62941;SDS011;49042;47.318;19.874;2023-06-19T02:48:08;9.85;;;6.87;;
62941;SDS011;49042;47.318;19.874;2023-06-19T02:51:11;11.27;;;6.93;;
62941;SDS011;49042;47.318;19.874;2023-06-19T02:54:13;8.05;;;6.60;;
62941;SDS011;49042;47.318;19.874;2023-06-19T02:57:14;10.50;;;7.28;;
62941;SDS011;49042;47.318;19.874;2023-06-19T03:00:16;8.50;;;7.00;;
62941;SDS011;49042;47.318;19.874;2023-06-19T03:03:18;14.18;;;8.85;;
62941;SDS011;49042;47.318;19.874;2023-06-19T03:06:20;13.18;;;7.50;;
62941;SDS011;49042;47.318;19.874;2023-06-19T03:09:22;9.85;;;7.05;;
62941;SDS011;49042;47.318;19.874;2023-06-19T03:12:24;11.30;;;7.68;;
62941;SDS011;49042;47.318;19.874;2023-06-19T03:15:25;9.77;;;7.72;;
62941;SDS011;49042;47.318;19.874;2023-06-19T03:18:27;10.93;;;7.60;;
62941;SDS011;49042;47.318;19.874;2023-06-19T03:21:29;10.82;;;7.35;;
62941;SDS011;49042;47.318;19.874;2023-06-19T03:24:30;14.95;;;7.57;;
62941;SDS011;49042;47.318;19.874;2023-06-19T03:27:32;11.68;;;8.20;;
62941;SDS011;49042;47.318;19.874;2023-06-19T03:30:34;11.82;;;7.65;;
62941;SDS011;49042;47.318;19.874;2023-06-19T03:33:35;9.52;;;7.65;;
62941;SDS011;49042;47.318;19.874;2023-06-19T03:36:37;12.30;;;7.65;;
62941;SDS011;49042;47.318;19.874;2023-06-19T03:39:40;11.75;;;7.97;;
62941;SDS011;49042;47.318;19.874;2023-06-19T03:42:41;11.73;;;7.07;;
62941;SDS011;49042;47.318;19.874;2023-06-19T03:45:43;10.50;;;7.20;;
62941;SDS011;49042;47.318;19.874;2023-06-19T03:48:45;10.35;;;7.10;;
62941;SDS011;49042;47.318;19.874;2023-06-19T03:51:46;12.00;;;8.25;;
62941;SDS011;49042;47.318;19.874;2023-06-19T03:54:48;11.85;;;8.80;;
62941;SDS011;49042;47.318;19.874;2023-06-19T03:57:50;16.10;;;8.60;;
62941;SDS011;49042;47.318;19.874;2023-06-19T04:00:54;15.15;;;9.38;;
62941;SDS011;49042;47.318;19.874;2023-06-19T04:03:55;17.58;;;9.23;;
62941;SDS011;49042;47.318;19.874;2023-06-19T04:06:57;11.57;;;9.90;;
62941;SDS011;49042;47.318;19.874;2023-06-19T04:10:00;16.52;;;11.00;;
62941;SDS011;49042;47.318;19.874;2023-06-19T04:13:02;18.05;;;10.63;;
62941;SDS011;49042;47.318;19.874;2023-06-19T04:16:04;53.30;;;40.25;;
62941;SDS011;49042;47.318;19.874;2023-06-19T04:19:05;15.45;;;11.00;;
62941;SDS011;49042;47.318;19.874;2023-06-19T04:22:07;13.73;;;8.48;;
62941;SDS011;49042;47.318;19.874;2023-06-19T04:25:09;12.35;;;8.88;;
62941;SDS011;49042;47.318;19.874;2023-06-19T04:28:14;10.52;;;8.45;;
62941;SDS011;49042;47.318;19.874;2023-06-19T04:31:16;16.48;;;9.43;;
62941;SDS011;49042;47.318;19.874;2023-06-19T04:34:19;11.55;;;8.57;;
62941;SDS011;49042;47.318;19.874;2023-06-19T04:37:22;14.15;;;9.60;;
62941;SDS011;49042;47.318;19.874;2023-06-19T04:40:24;15.82;;;8.18;;
62941;SDS011;49042;47.318;19.874;2023-06-19T04:43:27;11.50;;;8.32;;
62941;SDS011;49042;47.318;19.874;2023-06-19T04:46:29;12.57;;;8.38;;
62941;SDS011;49042;47.318;19.874;2023-06-19T04:49:30;15.18;;;9.63;;
62941;SDS011;49042;47.318;19.874;2023-06-19T04:52:32;29.25;;;10.13;;
62941;SDS011;49042;47.318;19.874;2023-06-19T04:55:34;24.77;;;10.07;;
62941;SDS011;49042;47.318;19.874;2023-06-19T04:58:36;14.85;;;10.90;;
62941;SDS011;49042;47.318;19.874;2023-06-19T05:01:40;16.15;;;9.55;;
62941;SDS011;49042;47.318;19.874;2023-06-19T05:04:41;18.20;;;9.45;;
62941;SDS011;49042;47.318;19.874;2023-06-19T05:07:45;14.38;;;9.65;;
62941;SDS011;49042;47.318;19.874;2023-06-19T05:10:46;13.68;;;9.13;;
62941;SDS011;49042;47.318;19.874;2023-06-19T05:13:48;13.35;;;8.45;;
62941;SDS011;49042;47.318;19.874;2023-06-19T05:16:50;13.57;;;9.30;;
62941;SDS011;49042;47.318;19.874;2023-06-19T05:19:52;17.48;;;9.82;;
62941;SDS011;49042;47.318;19.874;2023-06-19T05:22:53;12.63;;;10.15;;
62941;SDS011;49042;47.318;19.874;2023-06-19T05:25:55;11.88;;;9.05;;
62941;SDS011;49042;47.318;19.874;2023-06-19T05:28:57;11.63;;;8.80;;
62941;SDS011;49042;47.318;19.874;2023-06-19T05:31:58;14.70;;;9.30;;
62941;SDS011;49042;47.318;19.874;2023-06-19T05:35:00;12.00;;;9.32;;
62941;SDS011;49042;47.318;19.874;2023-06-19T05:38:02;12.25;;;8.65;;
62941;SDS011;49042;47.318;19.874;2023-06-19T05:41:04;11.85;;;9.13;;
62941;SDS011;49042;47.318;19.874;2023-06-19T05:44:06;10.90;;;8.82;;
62941;SDS011;49042;47.318;19.874;2023-06-19T05:47:07;18.55;;;9.18;;
62941;SDS011;49042;47.318;19.874;2023-06-19T05:50:09;13.38;;;9.70;;
62941;SDS011;49042;47.318;19.874;2023-06-19T05:53:11;14.82;;;10.13;;
62941;SDS011;49042;47.318;19.874;2023-06-19T05:56:16;14.10;;;9.18;;
62941;SDS011;49042;47.318;19.874;2023-06-19T05:59:17;12.20;;;9.77;;
62941;SDS011;49042;47.318;19.874;2023-06-19T06:02:19;16.10;;;9.75;;
62941;SDS011;49042;47.318;19.874;2023-06-19T06:05:21;10.45;;;9.27;;
62941;SDS011;49042;47.318;19.874;2023-06-19T06:08:23;11.30;;;9.45;;
62941;SDS011;49042;47.318;19.874;2023-06-19T06:11:25;12.63;;;9.15;;
62941;SDS011;49042;47.318;19.874;2023-06-19T06:14:27;13.40;;;10.02;;
62941;SDS011;49042;47.318;19.874;2023-06-19T06:17:29;12.27;;;9.90;;
62941;SDS011;49042;47.318;19.874;2023-06-19T06:20:31;13.80;;;9.43;;
62941;SDS011;49042;47.318;19.874;2023-06-19T06:23:32;11.07;;;8.93;;
62941;SDS011;49042;47.318;19.874;2023-06-19T06:26:34;12.93;;;8.82;;
62941;SDS011;49042;47.318;19.874;2023-06-19T06:29:37;10.80;;;9.15;;
62941;SDS011;49042;47.318;19.874;2023-06-19T06:32:38;16.25;;;10.18;;
62941;SDS011;49042;47.318;19.874;2023-06-19T06:35:40;12.15;;;9.05;;
62941;SDS011;49042;47.318;19.874;2023-06-19T06:38:42;13.52;;;8.63;;
62941;SDS011;49042;47.318;19.874;2023-06-19T06:41:43;9.57;;;8.18;;
62941;SDS011;49042;47.318;19.874;2023-06-19T06:44:45;13.62;;;8.30;;
62941;SDS011;49042;47.318;19.874;2023-06-19T06:47:47;12.63;;;7.82;;
62941;SDS011;49042;47.318;19.874;2023-06-19T06:50:48;20.77;;;9.93;;
62941;SDS011;49042;47.318;19.874;2023-06-19T06:53:50;9.05;;;7.80;;
62941;SDS011;49042;47.318;19.874;2023-06-19T06:56:53;13.95;;;7.82;;
62941;SDS011;49042;47.318;19.874;2023-06-19T06:59:58;13.27;;;7.10;;
62941;SDS011;49042;47.318;19.874;2023-06-19T07:03:00;7.90;;;7.10;;
62941;SDS011;49042;47.318;19.874;2023-06-19T07:06:02;12.93;;;7.07;;
62941;SDS011;49042;47.318;19.874;2023-06-19T07:09:04;11.30;;;7.40;;
62941;SDS011;49042;47.318;19.874;2023-06-19T07:12:06;13.35;;;6.80;;
62941;SDS011;49042;47.318;19.874;2023-06-19T07:15:08;16.50;;;7.03;;
62941;SDS011;49042;47.318;19.874;2023-06-19T07:18:10;10.63;;;6.60;;
62941;SDS011;49042;47.318;19.874;2023-06-19T07:21:12;8.68;;;7.43;;
62941;SDS011;49042;47.318;19.874;2023-06-19T07:24:15;15.18;;;6.35;;
62941;SDS011;49042;47.318;19.874;2023-06-19T07:27:17;7.35;;;6.55;;
62941;SDS011;49042;47.318;19.874;2023-06-19T07:30:19;11.77;;;6.47;;
62941;SDS011;49042;47.318;19.874;2023-06-19T07:33:21;8.77;;;6.72;;
62941;SDS011;49042;47.318;19.874;2023-06-19T07:36:23;8.88;;;6.32;;
62941;SDS011;49042;47.318;19.874;2023-06-19T07:39:25;7.03;;;5.93;;
62941;SDS011;49042;47.318;19.874;2023-06-19T07:42:27;11.98;;;6.80;;
62941;SDS011;49042;47.318;19.874;2023-06-19T07:45:28;7.75;;;5.87;;
62941;SDS011;49042;47.318;19.874;2023-06-19T07:48:30;12.55;;;6.30;;
62941;SDS011;49042;47.318;19.874;2023-06-19T07:51:32;7.90;;;6.53;;
62941;SDS011;49042;47.318;19.874;2023-06-19T07:54:34;13.13;;;6.78;;
62941;SDS011;49042;47.318;19.874;2023-06-19T07:57:36;8.68;;;6.05;;
62941;SDS011;49042;47.318;19.874;2023-06-19T08:00:38;9.98;;;6.37;;
62941;SDS011;49042;47.318;19.874;2023-06-19T08:03:39;11.00;;;6.35;;
62941;SDS011;49042;47.318;19.874;2023-06-19T08:06:41;8.82;;;6.37;;
62941;SDS011;49042;47.318;19.874;2023-06-19T08:09:43;17.40;;;6.20;;
62941;SDS011;49042;47.318;19.874;2023-06-19T08:12:44;9.25;;;6.32;;
62941;SDS011;49042;47.318;19.874;2023-06-19T08:15:46;19.15;;;6.82;;
62941;SDS011;49042;47.318;19.874;2023-06-19T08:18:48;17.58;;;6.53;;
62941;SDS011;49042;47.318;19.874;2023-06-19T08:21:50;10.63;;;6.12;;
62941;SDS011;49042;47.318;19.874;2023-06-19T08:24:51;7.97;;;6.30;;
62941;SDS011;49042;47.318;19.874;2023-06-19T08:27:53;7.53;;;6.05;;
62941;SDS011;49042;47.318;19.874;2023-06-19T08:30:55;7.95;;;6.05;;
62941;SDS011;49042;47.318;19.874;2023-06-19T08:33:56;10.77;;;5.25;;
62941;SDS011;49042;47.318;19.874;2023-06-19T08:36:58;8.10;;;5.87;;
62941;SDS011;49042;47.318;19.874;2023-06-19T08:40:00;8.85;;;5.15;;
62941;SDS011;49042;47.318;19.874;2023-06-19T08:43:02;5.78;;;4.65;;
62941;SDS011;49042;47.318;19.874;2023-06-19T08:46:10;7.22;;;5.12;;
62941;SDS011;49042;47.318;19.874;2023-06-19T08:49:13;5.28;;;4.37;;
62941;SDS011;49042;47.318;19.874;2023-06-19T08:52:15;8.20;;;4.37;;
62941;SDS011;49042;47.318;19.874;2023-06-19T08:55:16;10.63;;;4.25;;
62941;SDS011;49042;47.318;19.874;2023-06-19T08:58:22;10.15;;;4.43;;
62941;SDS011;49042;47.318;19.874;2023-06-19T09:04:28;12.35;;;3.78;;
62941;SDS011;49042;47.318;19.874;2023-06-19T09:07:32;5.78;;;3.45;;
62941;SDS011;49042;47.318;19.874;2023-06-19T09:10:34;7.10;;;3.83;;
62941;SDS011;49042;47.318;19.874;2023-06-19T09:13:35;5.75;;;3.50;;
62941;SDS011;49042;47.318;19.874;2023-06-19T09:16:41;21.33;;;3.95;;
62941;SDS011;49042;47.318;19.874;2023-06-19T09:19:53;4.03;;;2.75;;
62941;SDS011;49042;47.318;19.874;2023-06-19T09:22:59;11.75;;;3.05;;
62941;SDS011;49042;47.318;19.874;2023-06-19T09:26:01;3.33;;;2.47;;
62941;SDS011;49042;47.318;19.874;2023-06-19T09:29:13;3.92;;;2.78;;
62941;SDS011;49042;47.318;19.874;2023-06-19T09:32:22;5.22;;;3.15;;
62941;SDS011;49042;47.318;19.874;2023-06-19T09:35:25;7.90;;;2.87;;
62941;SDS011;49042;47.318;19.874;2023-06-19T09:38:27;7.03;;;2.87;;
62941;SDS011;49042;47.318;19.874;2023-06-19T09:41:31;5.68;;;3.08;;
62941;SDS011;49042;47.318;19.874;2023-06-19T09:44:37;4.20;;;3.15;;
62941;SDS011;49042;47.318;19.874;2023-06-19T09:47:47;3.45;;;2.70;;
62941;SDS011;49042;47.318;19.874;2023-06-19T09:50:51;5.85;;;3.12;;
62941;SDS011;49042;47.318;19.874;2023-06-19T09:53:58;12.00;;;2.97;;
62941;SDS011;49042;47.318;19.874;2023-06-19T09:57:02;9.02;;;2.83;;
62941;SDS011;49042;47.318;19.874;2023-06-19T10:00:05;4.85;;;3.37;;
62941;SDS011;49042;47.318;19.874;2023-06-19T10:03:33;3.85;;;3.20;;
62941;SDS011;49042;47.318;19.874;2023-06-19T10:06:42;10.85;;;3.22;;
62941;SDS011;49042;47.318;19.874;2023-06-19T10:13:13;5.80;;;3.22;;
62941;SDS011;49042;47.318;19.874;2023-06-19T10:16:20;5.20;;;3.67;;
62941;SDS011;49042;47.318;19.874;2023-06-19T10:19:23;7.15;;;3.40;;
62941;SDS011;49042;47.318;19.874;2023-06-19T10:22:30;8.55;;;3.90;;
62941;SDS011;49042;47.318;19.874;2023-06-19T10:25:33;11.12;;;3.45;;
62941;SDS011;49042;47.318;19.874;2023-06-19T10:28:36;7.53;;;3.72;;
62941;SDS011;49042;47.318;19.874;2023-06-19T10:31:38;8.20;;;4.35;;
62941;SDS011;49042;47.318;19.874;2023-06-19T10:34:40;5.07;;;4.10;;
62941;SDS011;49042;47.318;19.874;2023-06-19T10:37:48;5.68;;;3.95;;
62941;SDS011;49042;47.318;19.874;2023-06-19T10:40:50;7.03;;;4.40;;
62941;SDS011;49042;47.318;19.874;2023-06-19T10:43:56;7.43;;;4.30;;
62941;SDS011;49042;47.318;19.874;2023-06-19T10:50:00;11.68;;;4.00;;
62941;SDS011;49042;47.318;19.874;2023-06-19T10:53:03;6.07;;;3.97;;
62941;SDS011;49042;47.318;19.874;2023-06-19T10:56:05;5.95;;;3.92;;
62941;SDS011;49042;47.318;19.874;2023-06-19T10:59:08;6.82;;;4.07;;
62941;SDS011;49042;47.318;19.874;2023-06-19T11:02:13;6.10;;;3.90;;
62941;SDS011;49042;47.318;19.874;2023-06-19T11:05:15;5.28;;;4.00;;
62941;SDS011;49042;47.318;19.874;2023-06-19T11:08:17;7.15;;;4.03;;
62941;SDS011;49042;47.318;19.874;2023-06-19T11:11:34;9.13;;;4.18;;
62941;SDS011;49042;47.318;19.874;2023-06-19T11:14:40;6.05;;;4.05;;
62941;SDS011;49042;47.318;19.874;2023-06-19T11:17:43;5.37;;;4.32;;
62941;SDS011;49042;47.318;19.874;2023-06-19T11:20:51;5.20;;;4.10;;
62941;SDS011;49042;47.318;19.874;2023-06-19T11:23:54;9.70;;;3.80;;
62941;SDS011;49042;47.318;19.874;2023-06-19T11:26:59;8.27;;;4.37;;
62941;SDS011;49042;47.318;19.874;2023-06-19T11:30:01;12.77;;;3.60;;
62941;SDS011;49042;47.318;19.874;2023-06-19T11:33:18;5.37;;;3.95;;
62941;SDS011;49042;47.318;19.874;2023-06-19T11:36:24;5.68;;;3.85;;
62941;SDS011;49042;47.318;19.874;2023-06-19T11:39:26;8.27;;;4.03;;
62941;SDS011;49042;47.318;19.874;2023-06-19T11:42:29;5.95;;;4.07;;
62941;SDS011;49042;47.318;19.874;2023-06-19T11:45:31;4.65;;;3.35;;
62941;SDS011;49042;47.318;19.874;2023-06-19T11:48:36;5.18;;;3.42;;
62941;SDS011;49042;47.318;19.874;2023-06-19T11:51:38;8.05;;;3.62;;
62941;SDS011;49042;47.318;19.874;2023-06-19T11:54:40;6.80;;;3.78;;
62941;SDS011;49042;47.318;19.874;2023-06-19T11:57:42;9.80;;;3.95;;
62941;SDS011;49042;47.318;19.874;2023-06-19T12:00:45;5.60;;;3.55;;
62941;SDS011;49042;47.318;19.874;2023-06-19T12:03:46;8.18;;;3.62;;
62941;SDS011;49042;47.318;19.874;2023-06-19T12:06:48;7.07;;;3.60;;
62941;SDS011;49042;47.318;19.874;2023-06-19T12:09:50;8.40;;;3.75;;
62941;SDS011;49042;47.318;19.874;2023-06-19T12:12:53;5.78;;;2.95;;
62941;SDS011;49042;47.318;19.874;2023-06-19T12:15:55;4.18;;;3.08;;
62941;SDS011;49042;47.318;19.874;2023-06-19T12:18:56;3.12;;;2.75;;
62941;SDS011;49042;47.318;19.874;2023-06-19T12:21:58;3.58;;;2.97;;
62941;SDS011;49042;47.318;19.874;2023-06-19T12:25:00;4.53;;;3.30;;
62941;SDS011;49042;47.318;19.874;2023-06-19T12:28:02;5.18;;;3.03;;
62941;SDS011;49042;47.318;19.874;2023-06-19T12:31:09;5.20;;;3.25;;
62941;SDS011;49042;47.318;19.874;2023-06-19T12:34:11;9.95;;;3.28;;
62941;SDS011;49042;47.318;19.874;2023-06-19T12:37:29;3.90;;;3.20;;
62941;SDS011;49042;47.318;19.874;2023-06-19T12:40:31;4.53;;;3.28;;
62941;SDS011;49042;47.318;19.874;2023-06-19T12:43:32;5.47;;;3.72;;
62941;SDS011;49042;47.318;19.874;2023-06-19T12:46:34;3.85;;;3.30;;
62941;SDS011;49042;47.318;19.874;2023-06-19T12:49:36;12.30;;;3.67;;
62941;SDS011;49042;47.318;19.874;2023-06-19T12:52:38;6.37;;;3.70;;
62941;SDS011;49042;47.318;19.874;2023-06-19T12:55:40;6.60;;;3.00;;
62941;SDS011;49042;47.318;19.874;2023-06-19T12:59:00;5.45;;;3.58;;
62941;SDS011;49042;47.318;19.874;2023-06-19T13:02:02;5.60;;;3.55;;
62941;SDS011;49042;47.318;19.874;2023-06-19T13:05:05;7.07;;;3.50;;
62941;SDS011;49042;47.318;19.874;2023-06-19T13:08:07;5.20;;;3.42;;
62941;SDS011;49042;47.318;19.874;2023-06-19T13:11:09;11.88;;;3.65;;
62941;SDS011;49042;47.318;19.874;2023-06-19T13:14:11;5.75;;;3.42;;
62941;SDS011;49042;47.318;19.874;2023-06-19T13:17:12;7.12;;;3.60;;
62941;SDS011;49042;47.318;19.874;2023-06-19T13:20:15;7.45;;;3.70;;
62941;SDS011;49042;47.318;19.874;2023-06-19T13:23:17;5.87;;;3.47;;
62941;SDS011;49042;47.318;19.874;2023-06-19T13:26:19;8.90;;;3.35;;
62941;SDS011;49042;47.318;19.874;2023-06-19T13:29:21;14.73;;;4.22;;
62941;SDS011;49042;47.318;19.874;2023-06-19T13:32:22;9.07;;;3.67;;
62941;SDS011;49042;47.318;19.874;2023-06-19T13:35:24;7.90;;;3.70;;
62941;SDS011;49042;47.318;19.874;2023-06-19T13:38:26;6.25;;;3.30;;
62941;SDS011;49042;47.318;19.874;2023-06-19T13:41:28;4.22;;;3.60;;
62941;SDS011;49042;47.318;19.874;2023-06-19T13:44:32;5.18;;;3.08;;
62941;SDS011;49042;47.318;19.874;2023-06-19T13:47:35;7.60;;;3.70;;
62941;SDS011;49042;47.318;19.874;2023-06-19T13:50:37;6.93;;;3.80;;
62941;SDS011;49042;47.318;19.874;2023-06-19T13:53:39;4.55;;;3.42;;
62941;SDS011;49042;47.318;19.874;2023-06-19T13:56:40;5.78;;;3.65;;
62941;SDS011;49042;47.318;19.874;2023-06-19T13:59:43;11.10;;;6.10;;
62941;SDS011;49042;47.318;19.874;2023-06-19T14:02:45;6.60;;;3.90;;
62941;SDS011;49042;47.318;19.874;2023-06-19T14:05:47;10.30;;;3.90;;
62941;SDS011;49042;47.318;19.874;2023-06-19T14:08:49;10.20;;;3.67;;
62941;SDS011;49042;47.318;19.874;2023-06-19T14:11:50;8.93;;;4.68;;
62941;SDS011;49042;47.318;19.874;2023-06-19T14:14:52;7.62;;;4.10;;
62941;SDS011;49042;47.318;19.874;2023-06-19T14:17:54;7.15;;;4.20;;
62941;SDS011;49042;47.318;19.874;2023-06-19T14:20:56;18.83;;;4.30;;
62941;SDS011;49042;47.318;19.874;2023-06-19T14:23:57;4.40;;;4.00;;
62941;SDS011;49042;47.318;19.874;2023-06-19T14:26:59;4.62;;;4.05;;
62941;SDS011;49042;47.318;19.874;2023-06-19T14:30:01;9.95;;;4.57;;
62941;SDS011;49042;47.318;19.874;2023-06-19T14:33:02;6.62;;;4.10;;
62941;SDS011;49042;47.318;19.874;2023-06-19T14:36:04;9.55;;;4.28;;
62941;SDS011;49042;47.318;19.874;2023-06-19T14:39:06;7.97;;;4.55;;
62941;SDS011;49042;47.318;19.874;2023-06-19T14:42:08;11.75;;;5.03;;
62941;SDS011;49042;47.318;19.874;2023-06-19T14:45:11;6.40;;;4.22;;
62941;SDS011;49042;47.318;19.874;2023-06-19T14:48:13;7.53;;;4.05;;
62941;SDS011;49042;47.318;19.874;2023-06-19T14:51:14;9.25;;;4.57;;
62941;SDS011;49042;47.318;19.874;2023-06-19T14:54:16;5.35;;;4.28;;
62941;SDS011;49042;47.318;19.874;2023-06-19T14:57:19;10.60;;;5.20;;
62941;SDS011;49042;47.318;19.874;2023-06-19T15:00:20;7.03;;;4.28;;
62941;SDS011;49042;47.318;19.874;2023-06-19T15:03:22;6.22;;;4.45;;
62941;SDS011;49042;47.318;19.874;2023-06-19T15:06:24;10.20;;;4.35;;
62941;SDS011;49042;47.318;19.874;2023-06-19T15:09:26;13.30;;;4.70;;
62941;SDS011;49042;47.318;19.874;2023-06-19T15:12:28;7.97;;;4.22;;
62941;SDS011;49042;47.318;19.874;2023-06-19T15:15:30;5.85;;;4.57;;
62941;SDS011;49042;47.318;19.874;2023-06-19T15:18:31;6.25;;;4.43;;
62941;SDS011;49042;47.318;19.874;2023-06-19T15:21:33;7.40;;;4.50;;
62941;SDS011;49042;47.318;19.874;2023-06-19T15:24:35;4.95;;;4.25;;
62941;SDS011;49042;47.318;19.874;2023-06-19T15:27:37;11.80;;;4.68;;
62941;SDS011;49042;47.318;19.874;2023-06-19T15:30:38;7.80;;;4.40;;
62941;SDS011;49042;47.318;19.874;2023-06-19T15:33:40;9.90;;;4.68;;
62941;SDS011;49042;47.318;19.874;2023-06-19T15:36:42;9.77;;;4.60;;
62941;SDS011;49042;47.318;19.874;2023-06-19T15:39:44;12.23;;;5.20;;
62941;SDS011;49042;47.318;19.874;2023-06-19T15:42:46;15.60;;;4.35;;
62941;SDS011;49042;47.318;19.874;2023-06-19T15:45:48;12.45;;;4.50;;
62941;SDS011;49042;47.318;19.874;2023-06-19T15:48:49;6.62;;;4.07;;
62941;SDS011;49042;47.318;19.874;2023-06-19T15:51:51;6.87;;;4.65;;
62941;SDS011;49042;47.318;19.874;2023-06-19T15:54:53;11.70;;;5.35;;
62941;SDS011;49042;47.318;19.874;2023-06-19T15:57:55;6.20;;;4.43;;
62941;SDS011;49042;47.318;19.874;2023-06-19T16:00:57;8.45;;;4.75;;
62941;SDS011;49042;47.318;19.874;2023-06-19T16:03:59;12.73;;;4.80;;
62941;SDS011;49042;47.318;19.874;2023-06-19T16:07:02;10.38;;;4.90;;
62941;SDS011;49042;47.318;19.874;2023-06-19T16:10:04;5.35;;;4.72;;
62941;SDS011;49042;47.318;19.874;2023-06-19T16:13:06;7.20;;;4.50;;
62941;SDS011;49042;47.318;19.874;2023-06-19T16:16:08;8.52;;;4.78;;
62941;SDS011;49042;47.318;19.874;2023-06-19T16:19:10;6.30;;;4.72;;
62941;SDS011;49042;47.318;19.874;2023-06-19T16:22:12;9.95;;;4.05;;
62941;SDS011;49042;47.318;19.874;2023-06-19T16:25:13;9.85;;;5.10;;
62941;SDS011;49042;47.318;19.874;2023-06-19T16:28:15;5.68;;;4.85;;
62941;SDS011;49042;47.318;19.874;2023-06-19T16:31:17;9.90;;;4.95;;
62941;SDS011;49042;47.318;19.874;2023-06-19T16:34:19;7.05;;;4.62;;
62941;SDS011;49042;47.318;19.874;2023-06-19T16:37:20;11.80;;;4.25;;
62941;SDS011;49042;47.318;19.874;2023-06-19T16:40:22;8.52;;;4.50;;
62941;SDS011;49042;47.318;19.874;2023-06-19T16:43:27;9.13;;;4.80;;
62941;SDS011;49042;47.318;19.874;2023-06-19T16:46:28;10.63;;;5.15;;
62941;SDS011;49042;47.318;19.874;2023-06-19T16:49:30;19.87;;;6.37;;
62941;SDS011;49042;47.318;19.874;2023-06-19T16:52:32;12.13;;;5.75;;
62941;SDS011;49042;47.318;19.874;2023-06-19T16:55:34;9.70;;;5.90;;
62941;SDS011;49042;47.318;19.874;2023-06-19T16:58:36;11.40;;;5.12;;
62941;SDS011;49042;47.318;19.874;2023-06-19T17:01:37;9.15;;;6.10;;
62941;SDS011;49042;47.318;19.874;2023-06-19T17:04:39;21.17;;;6.95;;
62941;SDS011;49042;47.318;19.874;2023-06-19T17:07:41;15.38;;;8.38;;
62941;SDS011;49042;47.318;19.874;2023-06-19T17:10:43;16.23;;;8.23;;
62941;SDS011;49042;47.318;19.874;2023-06-19T17:13:44;14.45;;;7.05;;
62941;SDS011;49042;47.318;19.874;2023-06-19T17:16:46;15.05;;;7.50;;
62941;SDS011;49042;47.318;19.874;2023-06-19T17:19:48;10.00;;;5.25;;
62941;SDS011;49042;47.318;19.874;2023-06-19T17:22:50;11.00;;;5.37;;
62941;SDS011;49042;47.318;19.874;2023-06-19T17:25:51;11.27;;;5.40;;
62941;SDS011;49042;47.318;19.874;2023-06-19T17:28:53;10.43;;;5.45;;
62941;SDS011;49042;47.318;19.874;2023-06-19T17:31:55;10.57;;;5.43;;
62941;SDS011;49042;47.318;19.874;2023-06-19T17:34:58;7.47;;;5.47;;
62941;SDS011;49042;47.318;19.874;2023-06-19T17:38:01;9.93;;;5.78;;
62941;SDS011;49042;47.318;19.874;2023-06-19T17:41:03;18.20;;;5.90;;
62941;SDS011;49042;47.318;19.874;2023-06-19T17:44:05;11.10;;;5.50;;
62941;SDS011;49042;47.318;19.874;2023-06-19T17:47:07;16.62;;;5.65;;
62941;SDS011;49042;47.318;19.874;2023-06-19T17:50:09;21.30;;;10.43;;
62941;SDS011;49042;47.318;19.874;2023-06-19T17:53:13;16.17;;;6.28;;
62941;SDS011;49042;47.318;19.874;2023-06-19T17:56:15;10.00;;;5.62;;
62941;SDS011;49042;47.318;19.874;2023-06-19T17:59:18;11.88;;;5.55;;
62941;SDS011;49042;47.318;19.874;2023-06-19T18:02:20;12.52;;;5.45;;
62941;SDS011;49042;47.318;19.874;2023-06-19T18:05:22;17.42;;;5.90;;
62941;SDS011;49042;47.318;19.874;2023-06-19T18:08:23;10.13;;;6.05;;
62941;SDS011;49042;47.318;19.874;2023-06-19T18:11:25;18.65;;;5.55;;